createdAt,value
2017-03-19T00:00:23.222Z,97.16
2017-03-19T00:01:35.439Z,97.44
2017-03-19T00:02:47.982Z,98.11
2017-03-19T00:04:00.224Z,97.25
2017-03-19T00:05:12.755Z,97.44
2017-03-19T00:06:24.990Z,97.54
2017-03-19T00:07:37.523Z,97.82
2017-03-19T00:08:50.068Z,97.68
2017-03-19T00:10:02.585Z,97.82
2017-03-19T00:11:15.152Z,97.92
2017-03-19T00:12:27.369Z,98.39
2017-03-19T00:13:39.877Z,98.11
2017-03-19T00:14:52.423Z,97.96
2017-03-19T00:16:04.665Z,98.25
2017-03-19T00:17:17.194Z,98.06
2017-03-19T00:18:29.110Z,98.06
2017-03-19T00:19:41.625Z,97.96
2017-03-19T00:20:54.150Z,98.06
2017-03-19T00:22:06.699Z,97.77
2017-03-19T00:23:19.208Z,98.15
2017-03-19T00:24:31.747Z,98.15
2017-03-19T00:25:43.932Z,98.15
2017-03-19T00:26:56.449Z,98.06
2017-03-19T00:28:08.999Z,98.06
2017-03-19T00:29:21.242Z,98.06
2017-03-19T00:30:33.465Z,97.96
2017-03-19T00:31:45.680Z,98.53
2017-03-19T00:32:57.908Z,98.25
2017-03-19T00:34:10.432Z,98.44
2017-03-19T00:35:22.350Z,98.15
2017-03-19T00:36:34.873Z,98.44
2017-03-19T00:37:47.412Z,98.91
2017-03-19T00:38:59.616Z,98.72
2017-03-19T00:40:12.175Z,98.82
2017-03-19T00:41:23.800Z,98.63
2017-03-19T00:42:36.343Z,98.72
2017-03-19T00:43:48.864Z,98.53
2017-03-19T00:45:01.435Z,98.82
2017-03-19T00:46:13.338Z,99.01
2017-03-19T00:47:25.581Z,98.72
2017-03-19T00:48:38.135Z,99.48
2017-03-19T00:49:50.651Z,99.38
2017-03-19T00:51:03.188Z,99.57
2017-03-19T00:52:15.713Z,99.19
2017-03-19T00:53:28.269Z,99.29
2017-03-19T00:54:40.810Z,99.01
2017-03-19T00:55:52.723Z,99.76
2017-03-19T00:57:05.247Z,99.19
2017-03-19T00:58:17.789Z,99.38
2017-03-19T00:59:30.014Z,99.1
2017-03-19T01:00:42.264Z,99.01
2017-03-19T01:01:54.781Z,99.66
2017-03-19T01:03:07.327Z,99.57
2017-03-19T01:04:19.853Z,99.48
2017-03-19T01:05:32.072Z,99.48
2017-03-19T01:06:44.295Z,99.76
2017-03-19T01:07:56.215Z,99.85
2017-03-19T01:09:08.735Z,99.76
2017-03-19T01:10:21.231Z,99.66
2017-03-19T01:11:33.145Z,99.95
2017-03-19T01:12:45.369Z,99.99
2017-03-19T01:13:57.894Z,99.99
2017-03-19T01:15:10.436Z,99.99
2017-03-19T01:16:22.960Z,99.95
2017-03-19T01:17:35.184Z,99.99
2017-03-19T01:18:47.428Z,99.99
2017-03-19T01:19:59.974Z,99.99
2017-03-19T01:21:12.212Z,99.99
2017-03-19T01:22:24.147Z,99.99
2017-03-19T01:23:36.657Z,99.99
2017-03-19T01:24:49.182Z,99.99
2017-03-19T01:26:01.708Z,99.99
2017-03-19T01:27:14.226Z,99.99
2017-03-19T01:28:26.739Z,99.99
2017-03-19T01:29:39.241Z,99.99
2017-03-19T01:30:51.778Z,99.99
2017-03-19T01:32:04.000Z,99.99
2017-03-19T01:33:16.523Z,99.99
2017-03-19T01:34:28.779Z,99.99
2017-03-19T01:35:41.312Z,99.99
2017-03-19T01:36:53.840Z,99.99
2017-03-19T01:38:06.639Z,99.99
2017-03-19T01:39:19.180Z,99.99
2017-03-19T01:40:31.404Z,99.99
2017-03-19T01:41:43.925Z,99.99
2017-03-19T01:42:56.492Z,99.99
2017-03-19T01:44:09.017Z,99.99
2017-03-19T01:45:21.541Z,99.99
2017-03-19T01:46:34.087Z,99.99
2017-03-19T01:47:46.625Z,99.99
2017-03-19T01:48:58.880Z,99.99
2017-03-19T01:50:11.117Z,99.99
2017-03-19T01:51:23.345Z,99.99
2017-03-19T01:52:35.581Z,99.99
2017-03-19T01:53:47.488Z,99.99
2017-03-19T01:54:59.733Z,99.99
2017-03-19T01:56:12.297Z,99.99
2017-03-19T01:57:24.796Z,99.99
2017-03-19T01:58:36.989Z,99.99
2017-03-19T01:59:49.509Z,99.99
2017-03-19T02:01:01.451Z,99.99
2017-03-19T02:02:13.980Z,99.99
2017-03-19T02:03:26.507Z,99.99
2017-03-19T02:04:39.040Z,99.99
2017-03-19T02:05:51.270Z,99.99
2017-03-19T02:07:03.517Z,99.99
2017-03-19T02:08:16.060Z,99.99
2017-03-19T02:09:28.602Z,99.99
2017-03-19T02:10:41.081Z,99.99
2017-03-19T02:11:53.316Z,99.99
2017-03-19T02:13:05.845Z,99.99
2017-03-19T02:14:18.395Z,99.99
2017-03-19T02:15:30.930Z,99.99
2017-03-19T02:16:43.181Z,99.99
2017-03-19T02:17:55.710Z,99.99
2017-03-19T02:19:08.228Z,99.99
2017-03-19T02:20:20.789Z,99.99
2017-03-19T02:21:33.307Z,99.99
2017-03-19T02:22:45.810Z,99.99
2017-03-19T02:23:58.353Z,99.99
2017-03-19T02:25:10.852Z,99.99
2017-03-19T02:26:23.392Z,99.99
2017-03-19T02:27:35.598Z,99.99
2017-03-19T02:28:47.815Z,99.99
2017-03-19T02:30:00.340Z,99.99
2017-03-19T02:31:12.858Z,99.99
2017-03-19T02:32:25.102Z,99.99
2017-03-19T02:33:37.348Z,99.99
2017-03-19T02:34:49.613Z,99.99
2017-03-19T02:36:02.158Z,99.99
2017-03-19T02:37:14.661Z,99.99
2017-03-19T02:38:27.186Z,99.99
2017-03-19T02:39:39.720Z,99.99
2017-03-19T02:40:51.977Z,99.99
2017-03-19T02:42:04.195Z,99.99
2017-03-19T02:43:16.984Z,99.99
2017-03-19T02:44:29.536Z,99.99
2017-03-19T02:45:42.050Z,99.99
2017-03-19T02:46:54.553Z,99.99
2017-03-19T02:48:07.067Z,99.99
2017-03-19T02:49:19.567Z,99.99
2017-03-19T02:50:32.115Z,99.99
2017-03-19T02:51:44.339Z,99.99
2017-03-19T02:52:56.867Z,99.99
2017-03-19T02:54:09.125Z,99.99
2017-03-19T02:55:21.668Z,99.99
2017-03-19T02:56:33.900Z,99.99
2017-03-19T02:57:46.418Z,99.99
2017-03-19T02:58:58.967Z,99.99
2017-03-19T03:00:11.512Z,99.99
2017-03-19T03:01:23.772Z,99.99
2017-03-19T03:02:36.000Z,99.99
2017-03-19T03:03:48.228Z,99.99
2017-03-19T03:05:00.720Z,99.99
2017-03-19T03:06:13.283Z,99.99
2017-03-19T03:07:25.569Z,99.99
2017-03-19T03:08:37.780Z,99.99
2017-03-19T03:09:50.308Z,99.99
2017-03-19T03:11:02.847Z,99.99
2017-03-19T03:12:15.360Z,99.99
2017-03-19T03:13:27.867Z,99.99
2017-03-19T03:14:40.381Z,99.99
2017-03-19T03:15:52.923Z,99.99
2017-03-19T03:17:05.433Z,99.99
2017-03-19T03:18:17.993Z,99.99
2017-03-19T03:19:30.543Z,99.99
2017-03-19T03:20:42.766Z,99.99
2017-03-19T03:21:55.302Z,99.99
2017-03-19T03:23:07.799Z,99.99
2017-03-19T03:24:20.304Z,99.99
2017-03-19T03:25:32.873Z,99.99
2017-03-19T03:26:45.395Z,99.99
2017-03-19T03:27:57.618Z,99.99
2017-03-19T03:29:10.119Z,99.99
2017-03-19T03:30:22.337Z,99.99
2017-03-19T03:31:34.598Z,99.99
2017-03-19T03:32:46.216Z,99.99
2017-03-19T03:33:58.741Z,99.99
2017-03-19T03:35:11.291Z,99.99
2017-03-19T03:36:23.229Z,99.99
2017-03-19T03:37:35.762Z,99.99
2017-03-19T03:38:47.955Z,99.99
2017-03-19T03:40:00.190Z,99.99
2017-03-19T03:41:12.741Z,99.99
2017-03-19T03:42:24.986Z,99.99
2017-03-19T03:43:37.506Z,99.99
2017-03-19T03:44:49.786Z,99.99
2017-03-19T03:46:01.999Z,99.99
2017-03-19T03:47:14.527Z,99.99
2017-03-19T03:48:27.325Z,99.99
2017-03-19T03:49:39.843Z,99.99
2017-03-19T03:50:52.055Z,99.99
2017-03-19T03:52:04.562Z,99.99
2017-03-19T03:53:17.071Z,99.99
2017-03-19T03:54:29.567Z,99.99
2017-03-19T03:55:42.074Z,99.99
2017-03-19T03:56:54.595Z,99.99
2017-03-19T03:58:07.159Z,99.99
2017-03-19T03:59:19.679Z,99.99
2017-03-19T04:00:32.205Z,99.99
2017-03-19T04:01:44.751Z,99.99
2017-03-19T04:02:57.268Z,99.99
2017-03-19T04:04:09.796Z,99.99
2017-03-19T04:05:22.048Z,99.99
2017-03-19T04:06:34.600Z,99.99
2017-03-19T04:07:47.101Z,99.99
2017-03-19T04:08:59.355Z,99.99
2017-03-19T04:10:12.148Z,99.99
2017-03-19T04:11:24.385Z,99.99
2017-03-19T04:12:36.893Z,99.99
2017-03-19T04:13:49.113Z,99.99
2017-03-19T04:15:01.655Z,99.99
2017-03-19T04:16:14.204Z,99.99
2017-03-19T04:17:26.750Z,99.99
2017-03-19T04:18:39.293Z,99.99
2017-03-19T04:19:51.535Z,99.99
2017-03-19T04:21:03.790Z,99.99
2017-03-19T04:22:16.297Z,99.99
2017-03-19T04:23:28.552Z,99.99
2017-03-19T04:24:41.073Z,99.99
2017-03-19T04:25:53.613Z,99.99
2017-03-19T04:27:06.168Z,99.99
2017-03-19T04:28:18.411Z,99.99
2017-03-19T04:29:30.974Z,99.99
2017-03-19T04:30:43.524Z,99.99
2017-03-19T04:31:55.766Z,99.99
2017-03-19T04:33:08.290Z,99.99
2017-03-19T04:34:20.833Z,99.99
2017-03-19T04:35:33.408Z,99.99
2017-03-19T04:36:45.656Z,99.99
2017-03-19T04:37:57.883Z,99.99
2017-03-19T04:39:10.115Z,99.99
2017-03-19T04:40:22.641Z,99.99
2017-03-19T04:41:35.190Z,99.99
2017-03-19T04:42:47.354Z,99.99
2017-03-19T04:43:59.911Z,99.99
2017-03-19T04:45:12.424Z,99.99
2017-03-19T04:46:24.945Z,99.99
2017-03-19T04:47:37.461Z,99.99
2017-03-19T04:48:49.386Z,99.99
2017-03-19T04:50:01.942Z,99.99
2017-03-19T04:51:14.513Z,99.99
2017-03-19T04:52:26.157Z,99.99
2017-03-19T04:53:38.705Z,99.99
2017-03-19T04:54:50.641Z,99.99
2017-03-19T04:56:03.195Z,99.99
2017-03-19T04:57:15.412Z,99.99
2017-03-19T04:58:27.657Z,99.99
2017-03-19T04:59:39.871Z,99.99
2017-03-19T05:00:52.075Z,99.99
2017-03-19T05:02:04.613Z,99.99
2017-03-19T05:03:16.846Z,99.99
2017-03-19T05:04:29.117Z,99.99
2017-03-19T05:05:41.626Z,99.99
2017-03-19T05:06:54.158Z,99.99
2017-03-19T05:08:06.702Z,99.99
2017-03-19T05:09:18.939Z,99.99
2017-03-19T05:10:31.166Z,99.99
2017-03-19T05:11:43.709Z,99.99
2017-03-19T05:12:55.934Z,99.99
2017-03-19T05:14:08.449Z,99.99
2017-03-19T05:15:20.675Z,99.99
2017-03-19T05:16:33.191Z,99.99
2017-03-19T05:17:45.431Z,99.99
2017-03-19T05:18:57.960Z,99.99
2017-03-19T05:20:10.502Z,99.99
2017-03-19T05:21:23.052Z,99.99
2017-03-19T05:22:35.606Z,99.99
2017-03-19T05:23:48.151Z,99.99
2017-03-19T05:25:00.397Z,99.99
2017-03-19T05:26:12.889Z,99.99
2017-03-19T05:27:25.116Z,99.99
2017-03-19T05:28:37.635Z,99.99
2017-03-19T05:29:49.853Z,99.99
2017-03-19T05:31:02.414Z,99.99
2017-03-19T05:32:14.600Z,99.99
2017-03-19T05:33:27.147Z,99.99
2017-03-19T05:34:39.381Z,99.99
2017-03-19T05:35:51.934Z,99.99
2017-03-19T05:37:04.405Z,99.99
2017-03-19T05:38:16.919Z,99.99
2017-03-19T05:39:28.870Z,99.99
2017-03-19T05:40:41.396Z,99.99
2017-03-19T05:41:53.906Z,99.99
2017-03-19T05:43:06.428Z,99.99
2017-03-19T05:44:18.974Z,99.99
2017-03-19T05:45:31.490Z,99.99
2017-03-19T05:46:43.994Z,99.99
2017-03-19T05:47:56.458Z,99.99
2017-03-19T05:49:09.008Z,99.99
2017-03-19T05:50:21.535Z,99.99
2017-03-19T05:51:33.731Z,99.99
2017-03-19T05:52:46.274Z,99.99
2017-03-19T05:53:58.522Z,99.99
2017-03-19T05:55:10.759Z,99.99
2017-03-19T05:56:22.991Z,99.99
2017-03-19T05:57:35.537Z,99.99
2017-03-19T05:58:47.825Z,99.99
2017-03-19T06:00:00.367Z,99.99
2017-03-19T06:01:12.912Z,99.99
2017-03-19T06:02:25.137Z,99.99
2017-03-19T06:03:37.655Z,99.99
2017-03-19T06:04:50.161Z,99.99
2017-03-19T06:06:02.107Z,99.99
2017-03-19T06:07:14.304Z,99.99
2017-03-19T06:08:26.541Z,99.99
2017-03-19T06:09:39.070Z,99.99
2017-03-19T06:10:51.605Z,99.99
2017-03-19T06:12:04.126Z,99.99
2017-03-19T06:13:16.622Z,99.99
2017-03-19T06:14:29.154Z,99.99
2017-03-19T06:15:41.399Z,99.99
2017-03-19T06:16:53.934Z,99.99
2017-03-19T06:18:06.455Z,99.99
2017-03-19T06:19:18.991Z,99.99
2017-03-19T06:20:31.508Z,99.99
2017-03-19T06:21:44.097Z,99.99
2017-03-19T06:22:56.643Z,99.99
2017-03-19T06:24:09.192Z,99.99
2017-03-19T06:25:21.135Z,99.99
2017-03-19T06:26:33.678Z,99.99
2017-03-19T06:27:46.227Z,99.99
2017-03-19T06:28:58.773Z,99.99
2017-03-19T06:30:11.314Z,99.99
2017-03-19T06:31:23.838Z,99.99
2017-03-19T06:32:36.061Z,99.99
2017-03-19T06:33:48.632Z,99.99
2017-03-19T06:35:00.832Z,99.99
2017-03-19T06:36:13.376Z,99.99
2017-03-19T06:37:25.577Z,99.99
2017-03-19T06:38:38.119Z,99.99
2017-03-19T06:39:50.631Z,99.99
2017-03-19T06:41:03.161Z,99.99
2017-03-19T06:42:15.649Z,99.99
2017-03-19T06:43:27.852Z,99.99
2017-03-19T06:44:40.390Z,99.99
2017-03-19T06:45:52.298Z,99.99
2017-03-19T06:47:04.540Z,99.99
2017-03-19T06:48:17.082Z,99.99
2017-03-19T06:49:29.660Z,99.99
2017-03-19T06:50:42.207Z,99.99
2017-03-19T06:51:54.777Z,99.99
2017-03-19T06:53:07.320Z,99.99
2017-03-19T06:54:19.247Z,99.99
2017-03-19T06:55:31.765Z,99.99
2017-03-19T06:56:44.300Z,99.99
2017-03-19T06:57:56.830Z,99.99
2017-03-19T06:59:09.067Z,99.99
2017-03-19T07:00:21.612Z,99.99
2017-03-19T07:01:34.138Z,99.99
2017-03-19T07:02:46.668Z,99.99
2017-03-19T07:03:58.904Z,99.99
2017-03-19T07:05:11.447Z,99.99
2017-03-19T07:06:23.627Z,99.99
2017-03-19T07:07:35.838Z,99.99
2017-03-19T07:08:48.335Z,99.99
2017-03-19T07:10:00.558Z,99.99
2017-03-19T07:11:13.059Z,99.99
2017-03-19T07:12:24.997Z,99.99
2017-03-19T07:13:37.221Z,99.99
2017-03-19T07:14:49.775Z,99.99
2017-03-19T07:16:02.310Z,99.99
2017-03-19T07:17:14.817Z,99.99
2017-03-19T07:18:27.359Z,99.99
2017-03-19T07:19:39.901Z,99.99
2017-03-19T07:20:52.150Z,99.99
2017-03-19T07:22:04.071Z,99.99
2017-03-19T07:23:16.608Z,99.99
2017-03-19T07:24:28.832Z,99.99
2017-03-19T07:25:41.338Z,99.99
2017-03-19T07:26:53.884Z,99.99
2017-03-19T07:28:06.125Z,99.99
2017-03-19T07:29:18.643Z,99.99
2017-03-19T07:30:31.185Z,99.99
2017-03-19T07:31:43.732Z,99.58
2017-03-19T07:32:56.260Z,99.48
2017-03-19T07:34:08.815Z,99.67
2017-03-19T07:35:21.322Z,99.29
2017-03-19T07:36:33.822Z,99.01
2017-03-19T07:37:46.063Z,99.39
2017-03-19T07:38:58.593Z,99.2
2017-03-19T07:40:10.506Z,99.58
2017-03-19T07:41:22.740Z,99.29
2017-03-19T07:42:35.320Z,99.01
2017-03-19T07:43:47.877Z,99.01
2017-03-19T07:45:00.122Z,98.72
2017-03-19T07:46:12.665Z,98.91
2017-03-19T07:47:25.207Z,98.72
2017-03-19T07:48:37.157Z,98.91
2017-03-19T07:49:49.703Z,97.97
2017-03-19T07:51:01.956Z,98.25
2017-03-19T07:52:14.476Z,98.39
2017-03-19T07:53:26.718Z,98.02
2017-03-19T07:54:39.231Z,97.73
2017-03-19T07:55:51.777Z,97.26
2017-03-19T07:57:04.321Z,97.64
2017-03-19T07:58:17.126Z,97.07
2017-03-19T07:59:29.662Z,97.26
2017-03-19T08:00:41.865Z,97.73
2017-03-19T08:01:54.103Z,97.54
2017-03-19T08:03:06.331Z,97.64
2017-03-19T08:04:18.578Z,97.26
2017-03-19T08:05:31.116Z,96.92
2017-03-19T08:06:43.643Z,96.83
2017-03-19T08:07:56.174Z,96.26
2017-03-19T08:09:08.108Z,96.17
2017-03-19T08:10:20.357Z,95.98
2017-03-19T08:11:32.903Z,95.41
2017-03-19T08:12:45.445Z,95.41
2017-03-19T08:13:57.663Z,95.31
2017-03-19T08:15:09.570Z,95.12
2017-03-19T08:16:22.080Z,94.65
2017-03-19T08:17:34.308Z,94.46
2017-03-19T08:18:46.880Z,94.65
2017-03-19T08:19:59.117Z,94.6
2017-03-19T08:21:11.663Z,94.42
2017-03-19T08:22:24.163Z,94.32
2017-03-19T08:23:36.743Z,94.03
2017-03-19T08:24:49.288Z,93.75
2017-03-19T08:26:01.525Z,93.65
2017-03-19T08:27:13.455Z,93.84
2017-03-19T08:28:25.992Z,93.27
2017-03-19T08:29:38.242Z,92.99
2017-03-19T08:30:50.481Z,93.27
2017-03-19T08:32:02.676Z,93.27
2017-03-19T08:33:14.898Z,93.37
2017-03-19T08:34:26.526Z,93.27
2017-03-19T08:35:39.071Z,93.37
2017-03-19T08:36:51.589Z,93.08
2017-03-19T08:38:03.806Z,92.8
2017-03-19T08:39:16.002Z,92.71
2017-03-19T08:40:28.578Z,92.8
2017-03-19T08:41:40.826Z,92.42
2017-03-19T08:42:53.398Z,92.8
2017-03-19T08:44:05.621Z,92.42
2017-03-19T08:45:18.145Z,91.66
2017-03-19T08:46:30.389Z,91.24
2017-03-19T08:47:42.934Z,91.04
2017-03-19T08:48:55.503Z,91.42
2017-03-19T08:50:08.014Z,91.52
2017-03-19T08:51:19.640Z,91.04
2017-03-19T08:52:31.892Z,90.76
2017-03-19T08:53:44.444Z,90.57
2017-03-19T08:54:56.982Z,90.76
2017-03-19T08:56:08.920Z,90.47
2017-03-19T08:57:20.855Z,90.38
2017-03-19T08:58:33.365Z,90.28
2017-03-19T08:59:45.619Z,89.81
2017-03-19T09:00:57.861Z,90.19
2017-03-19T09:02:10.085Z,89.57
2017-03-19T09:03:22.877Z,89.28
2017-03-19T09:04:35.120Z,89.67
2017-03-19T09:05:47.665Z,89.28
2017-03-19T09:07:00.207Z,89
2017-03-19T09:08:12.741Z,88.43
2017-03-19T09:09:24.986Z,87.67
2017-03-19T09:10:37.532Z,87.1
2017-03-19T09:11:50.074Z,86.24
2017-03-19T09:13:02.588Z,86.34
2017-03-19T09:14:15.137Z,85.96
2017-03-19T09:15:27.688Z,86.34
2017-03-19T09:16:39.624Z,86.72
2017-03-19T09:17:51.846Z,86.24
2017-03-19T09:19:04.072Z,86
2017-03-19T09:20:16.650Z,86.1
2017-03-19T09:21:28.890Z,86.1
2017-03-19T09:22:40.867Z,84.67
2017-03-19T09:23:53.426Z,84.67
2017-03-19T09:25:05.357Z,85.43
2017-03-19T09:26:17.900Z,85.24
2017-03-19T09:27:30.442Z,84.58
2017-03-19T09:28:42.972Z,84.95
2017-03-19T09:29:55.513Z,84.67
2017-03-19T09:31:07.436Z,84.67
2017-03-19T09:32:19.656Z,84.58
2017-03-19T09:33:32.204Z,84.77
2017-03-19T09:34:44.447Z,84.67
2017-03-19T09:35:57.013Z,84.86
2017-03-19T09:37:09.535Z,84.77
2017-03-19T09:38:22.081Z,84.39
2017-03-19T09:39:34.629Z,84.77
2017-03-19T09:40:46.851Z,84.77
2017-03-19T09:41:59.397Z,84.95
2017-03-19T09:43:11.643Z,84.95
2017-03-19T09:44:24.218Z,84.58
2017-03-19T09:45:36.760Z,84.77
2017-03-19T09:46:49.311Z,84.67
2017-03-19T09:48:01.852Z,84.48
2017-03-19T09:49:13.797Z,84.67
2017-03-19T09:50:25.722Z,84.58
2017-03-19T09:51:38.015Z,84.48
2017-03-19T09:52:50.236Z,84.77
2017-03-19T09:54:02.477Z,83.62
2017-03-19T09:55:15.023Z,83.53
2017-03-19T09:56:26.978Z,83.72
2017-03-19T09:57:39.215Z,83.53
2017-03-19T09:58:51.761Z,84.01
2017-03-19T10:00:03.983Z,83.82
2017-03-19T10:01:16.231Z,83.44
2017-03-19T10:02:28.178Z,83.72
2017-03-19T10:03:40.693Z,83.72
2017-03-19T10:04:53.226Z,83.72
2017-03-19T10:06:05.742Z,83.91
2017-03-19T10:07:18.004Z,83.62
2017-03-19T10:08:30.235Z,83.06
2017-03-19T10:09:42.771Z,83.06
2017-03-19T10:10:55.299Z,82.68
2017-03-19T10:12:07.849Z,82.1
2017-03-19T10:13:20.388Z,81.92
2017-03-19T10:14:32.611Z,81.44
2017-03-19T10:15:44.538Z,81.35
2017-03-19T10:16:57.078Z,81.82
2017-03-19T10:18:09.646Z,82.01
2017-03-19T10:19:21.842Z,82.49
2017-03-19T10:20:34.391Z,83.06
2017-03-19T10:21:46.616Z,83.25
2017-03-19T10:22:59.158Z,82.87
2017-03-19T10:24:11.401Z,82.68
2017-03-19T10:25:23.050Z,82.58
2017-03-19T10:26:35.621Z,82.87
2017-03-19T10:27:48.171Z,83.53
2017-03-19T10:29:00.730Z,83.25
2017-03-19T10:30:13.263Z,83.15
2017-03-19T10:31:25.526Z,83.62
2017-03-19T10:32:38.053Z,83.91
2017-03-19T10:33:50.589Z,84.48
2017-03-19T10:35:02.812Z,85.05
2017-03-19T10:36:15.334Z,86.29
2017-03-19T10:37:27.880Z,85.91
2017-03-19T10:38:39.832Z,86.57
2017-03-19T10:39:52.072Z,87.14
2017-03-19T10:41:04.622Z,87.14
2017-03-19T10:42:16.842Z,88.57
2017-03-19T10:43:29.088Z,88.38
2017-03-19T10:44:41.637Z,88.76
2017-03-19T10:45:54.182Z,89.61
2017-03-19T10:47:06.729Z,88.95
2017-03-19T10:48:18.672Z,87.71
2017-03-19T10:49:31.197Z,88.71
2017-03-19T10:50:43.418Z,88.53
2017-03-19T10:51:55.952Z,89.09
2017-03-19T10:53:07.909Z,88.53
2017-03-19T10:54:20.205Z,87.95
2017-03-19T10:55:32.777Z,88.9
2017-03-19T10:56:45.018Z,89
2017-03-19T10:57:57.515Z,89.76
2017-03-19T10:59:09.761Z,90.99
2017-03-19T11:00:22.330Z,90.9
2017-03-19T11:01:34.581Z,90.71
2017-03-19T11:02:47.119Z,91.47
2017-03-19T11:03:59.650Z,91.85
2017-03-19T11:05:12.191Z,92.51
2017-03-19T11:06:24.431Z,93.18
2017-03-19T11:07:36.958Z,93.46
2017-03-19T11:08:49.510Z,93.46
2017-03-19T11:10:02.054Z,94.23
2017-03-19T11:11:14.587Z,93.6
2017-03-19T11:12:27.115Z,93.89
2017-03-19T11:13:39.657Z,93.41
2017-03-19T11:14:52.211Z,94.93
2017-03-19T11:16:04.782Z,95.31
2017-03-19T11:17:17.317Z,96.83
2017-03-19T11:18:29.850Z,96.55
2017-03-19T11:19:42.092Z,97.22
2017-03-19T11:20:54.317Z,97.64
2017-03-19T11:22:06.579Z,97.83
2017-03-19T11:23:19.158Z,98.11
2017-03-19T11:24:31.433Z,97.92
2017-03-19T11:25:43.645Z,98.78
2017-03-19T11:26:56.173Z,98.87
2017-03-19T11:28:08.404Z,99.44
2017-03-19T11:29:20.927Z,99.06
2017-03-19T11:30:33.151Z,99.54
2017-03-19T11:31:45.696Z,99.99
2017-03-19T11:32:57.928Z,99.99
2017-03-19T11:34:10.166Z,99.99
2017-03-19T11:35:22.413Z,99.99
2017-03-19T11:36:34.634Z,99.99
2017-03-19T11:37:47.163Z,99.99
2017-03-19T11:38:59.397Z,99.99
2017-03-19T11:40:11.947Z,99.99
2017-03-19T11:41:24.192Z,99.99
2017-03-19T11:42:36.443Z,99.99
2017-03-19T11:43:48.978Z,99.99
2017-03-19T11:45:01.526Z,99.99
2017-03-19T11:46:14.056Z,99.99
2017-03-19T11:47:26.577Z,99.99
2017-03-19T11:48:39.111Z,99.99
2017-03-19T11:49:51.658Z,99.99
2017-03-19T11:51:03.880Z,99.99
2017-03-19T11:52:16.423Z,99.99
2017-03-19T11:53:28.629Z,99.99
2017-03-19T11:54:41.173Z,99.99
2017-03-19T11:55:53.114Z,99.99
2017-03-19T11:57:05.282Z,99.99
2017-03-19T11:58:17.540Z,99.99
2017-03-19T11:59:29.773Z,99.99
2017-03-19T12:00:42.019Z,99.99
2017-03-19T12:01:54.552Z,99.99
2017-03-19T12:03:07.087Z,99.99
2017-03-19T12:04:19.633Z,99.99
2017-03-19T12:05:31.556Z,99.99
2017-03-19T12:06:44.091Z,99.99
2017-03-19T12:07:56.599Z,99.99
2017-03-19T12:09:08.851Z,99.99
2017-03-19T12:10:21.098Z,99.99
2017-03-19T12:11:33.015Z,99.99
2017-03-19T12:12:45.231Z,99.99
2017-03-19T12:13:57.462Z,99.99
2017-03-19T12:15:09.709Z,99.99
2017-03-19T12:16:21.977Z,99.99
2017-03-19T12:17:33.920Z,99.99
2017-03-19T12:18:46.687Z,99.99
2017-03-19T12:19:59.240Z,99.99
2017-03-19T12:21:11.774Z,99.99
2017-03-19T12:22:23.697Z,99.99
2017-03-19T12:23:35.953Z,99.99
2017-03-19T12:24:48.195Z,99.99
2017-03-19T12:26:00.441Z,99.99
2017-03-19T12:27:12.679Z,99.99
2017-03-19T12:28:25.229Z,99.99
2017-03-19T12:29:37.750Z,99.99
2017-03-19T12:30:49.676Z,99.99
2017-03-19T12:32:02.179Z,99.99
2017-03-19T12:33:14.715Z,99.99
2017-03-19T12:34:27.263Z,99.99
2017-03-19T12:35:39.783Z,99.99
2017-03-19T12:36:52.334Z,99.99
2017-03-19T12:38:04.869Z,99.99
2017-03-19T12:39:16.793Z,99.99
2017-03-19T12:40:29.009Z,99.99
2017-03-19T12:41:41.534Z,99.99
2017-03-19T12:42:54.037Z,99.99
2017-03-19T12:44:06.630Z,99.99
2017-03-19T12:45:18.847Z,99.99
2017-03-19T12:46:31.407Z,99.99
2017-03-19T12:47:43.971Z,99.99
2017-03-19T12:48:56.218Z,99.99
2017-03-19T12:50:08.756Z,99.99
2017-03-19T12:51:20.956Z,99.99
2017-03-19T12:52:33.202Z,99.99
2017-03-19T12:53:45.740Z,99.99
2017-03-19T12:54:58.289Z,99.99
2017-03-19T12:56:10.531Z,99.99
2017-03-19T12:57:22.735Z,99.99
2017-03-19T12:58:35.278Z,99.99
2017-03-19T12:59:47.798Z,99.99
2017-03-19T13:01:00.315Z,99.99
2017-03-19T13:02:12.822Z,99.99
2017-03-19T13:03:25.061Z,99.99
2017-03-19T13:04:37.586Z,99.99
2017-03-19T13:05:49.810Z,99.99
2017-03-19T13:07:02.344Z,99.99
2017-03-19T13:08:14.841Z,99.99
2017-03-19T13:09:27.066Z,99.99
2017-03-19T13:10:39.647Z,99.99
2017-03-19T13:11:52.203Z,99.99
2017-03-19T13:13:04.753Z,99.99
2017-03-19T13:14:17.003Z,99.99
2017-03-19T13:15:28.641Z,99.99
2017-03-19T13:16:41.198Z,99.99
2017-03-19T13:17:53.119Z,99.99
2017-03-19T13:19:05.654Z,99.99
2017-03-19T13:20:18.186Z,99.99
2017-03-19T13:21:30.712Z,99.99
2017-03-19T13:22:43.272Z,99.99
2017-03-19T13:23:55.516Z,99.99
2017-03-19T13:25:07.745Z,99.99
2017-03-19T13:26:19.982Z,99.99
2017-03-19T13:27:32.534Z,99.99
2017-03-19T13:28:45.075Z,99.99
2017-03-19T13:29:57.643Z,99.99
2017-03-19T13:31:09.863Z,99.99
2017-03-19T13:32:22.398Z,99.99
2017-03-19T13:33:34.906Z,99.99
2017-03-19T13:34:47.466Z,99.99
2017-03-19T13:35:59.979Z,99.99
2017-03-19T13:37:12.499Z,99.99
2017-03-19T13:38:23.822Z,99.99
2017-03-19T13:39:36.370Z,99.99
2017-03-19T13:40:48.605Z,99.99
2017-03-19T13:42:00.504Z,99.99
2017-03-19T13:43:12.708Z,99.99
2017-03-19T13:44:24.935Z,99.99
2017-03-19T13:45:37.172Z,99.99
2017-03-19T13:46:49.696Z,99.99
2017-03-19T13:48:01.657Z,99.99
2017-03-19T13:49:14.184Z,99.99
2017-03-19T13:50:26.449Z,99.99
2017-03-19T13:51:38.697Z,99.99
2017-03-19T13:52:51.215Z,99.99
2017-03-19T13:54:03.122Z,99.99
2017-03-19T13:55:15.348Z,99.99
2017-03-19T13:56:27.860Z,99.99
2017-03-19T13:57:40.110Z,99.99
2017-03-19T13:58:52.320Z,99.99
2017-03-19T14:00:04.816Z,99.99
2017-03-19T14:01:16.747Z,99.99
2017-03-19T14:02:29.297Z,99.99
2017-03-19T14:03:41.861Z,99.99
2017-03-19T14:04:54.400Z,99.99
2017-03-19T14:06:06.601Z,99.99
2017-03-19T14:07:18.850Z,99.99
2017-03-19T14:08:31.124Z,99.99
2017-03-19T14:09:43.695Z,99.99
2017-03-19T14:10:56.240Z,99.99
2017-03-19T14:12:08.462Z,99.99
2017-03-19T14:13:21.025Z,99.99
2017-03-19T14:14:33.550Z,99.99
2017-03-19T14:15:45.766Z,99.99
2017-03-19T14:16:57.686Z,99.99
2017-03-19T14:18:10.508Z,99.99
2017-03-19T14:19:22.761Z,99.99
2017-03-19T14:20:34.406Z,99.99
2017-03-19T14:21:46.969Z,99.99
2017-03-19T14:22:59.525Z,99.99
2017-03-19T14:24:12.084Z,99.99
2017-03-19T14:25:24.059Z,99.99
2017-03-19T14:26:36.259Z,99.99
2017-03-19T14:27:48.825Z,99.99
2017-03-19T14:29:01.067Z,99.99
2017-03-19T14:30:13.263Z,99.99
2017-03-19T14:31:25.787Z,99.99
2017-03-19T14:32:38.314Z,99.99
2017-03-19T14:33:50.858Z,99.99
2017-03-19T14:35:03.096Z,99.99
2017-03-19T14:36:15.297Z,99.99
2017-03-19T14:37:27.525Z,99.99
2017-03-19T14:38:40.042Z,99.99
2017-03-19T14:39:52.541Z,99.99
2017-03-19T14:41:05.079Z,99.99
2017-03-19T14:42:17.322Z,99.99
2017-03-19T14:43:29.829Z,99.99
2017-03-19T14:44:42.067Z,99.99
2017-03-19T14:45:53.713Z,99.99
2017-03-19T14:47:05.684Z,99.99
2017-03-19T14:48:17.960Z,99.99
2017-03-19T14:49:30.505Z,99.99
2017-03-19T14:50:42.747Z,99.99
2017-03-19T14:51:55.293Z,99.99
2017-03-19T14:53:07.825Z,99.99
2017-03-19T14:54:20.363Z,99.99
2017-03-19T14:55:32.334Z,99.99
2017-03-19T14:56:44.559Z,99.99
2017-03-19T14:57:56.806Z,99.99
2017-03-19T14:59:09.041Z,99.99
2017-03-19T15:00:21.321Z,99.99
2017-03-19T15:01:33.843Z,99.99
2017-03-19T15:02:46.059Z,99.99
2017-03-19T15:03:57.984Z,99.99
2017-03-19T15:05:09.607Z,99.99
2017-03-19T15:06:22.143Z,99.99
2017-03-19T15:07:34.372Z,99.99
2017-03-19T15:08:46.286Z,99.99
2017-03-19T15:09:58.815Z,99.99
2017-03-19T15:11:11.336Z,99.99
2017-03-19T15:12:23.219Z,99.99
2017-03-19T15:13:35.441Z,99.99
2017-03-19T15:14:47.666Z,99.99
2017-03-19T15:16:00.208Z,99.99
2017-03-19T15:17:12.729Z,99.99
2017-03-19T15:18:24.936Z,99.99
2017-03-19T15:19:37.527Z,99.99
2017-03-19T15:20:49.159Z,99.99
2017-03-19T15:22:01.392Z,99.99
2017-03-19T15:23:13.916Z,99.99
2017-03-19T15:24:26.466Z,99.99
2017-03-19T15:25:38.701Z,99.99
2017-03-19T15:26:51.221Z,99.99
2017-03-19T15:28:03.476Z,99.99
2017-03-19T15:29:16.013Z,99.99
2017-03-19T15:30:28.533Z,99.99
2017-03-19T15:31:41.062Z,99.99
2017-03-19T15:32:52.980Z,99.99